Terminal Aerodrome Forecast
Issued by NWS North Platte, NE

Home | Current Version | Previous Version | Graphics & Text | Print | Product List | Glossary On
Versions: 1 2 3 4 5 6 7 8 9 10 11 12 13 14 15 16 17 18 19 20 21 22 23
000
FTUS43 KLBF 172300
TAFVTN
TAF
KVTN 172322Z 1800/1824 16010KT 6SM BR OVC007
     FM180200 16007KT 3SM BR OVC003
     FM181500 21007KT 5SM BR OVC005
     FM181800 22007KT P6SM OVC006=

USA.gov is the U.S. government's official web portal to all federal, state and local government web resources and services.